sensor_id;sensor_type;location;lat;lon;timestamp;P1;durP1;ratioP1;P2;durP2;ratioP2
32639;SDS011;19049;52.524;11.468;2023-09-19T00:01:07;0.40;;;0.40;;
32639;SDS011;19049;52.524;11.468;2023-09-19T00:03:34;0.70;;;0.50;;
32639;SDS011;19049;52.524;11.468;2023-09-19T00:06:02;0.50;;;0.40;;
32639;SDS011;19049;52.524;11.468;2023-09-19T00:08:32;0.40;;;0.40;;
32639;SDS011;19049;52.524;11.468;2023-09-19T00:10:58;0.57;;;0.43;;
32639;SDS011;19049;52.524;11.468;2023-09-19T00:13:31;0.50;;;0.50;;
32639;SDS011;19049;52.524;11.468;2023-09-19T00:15:57;0.60;;;0.50;;
32639;SDS011;19049;52.524;11.468;2023-09-19T00:18:24;1.00;;;0.60;;
32639;SDS011;19049;52.524;11.468;2023-09-19T00:21:00;0.87;;;0.40;;
32639;SDS011;19049;52.524;11.468;2023-09-19T00:23:26;0.40;;;0.40;;
32639;SDS011;19049;52.524;11.468;2023-09-19T00:25:53;0.50;;;0.40;;
32639;SDS011;19049;52.524;11.468;2023-09-19T00:28:22;1.47;;;0.50;;
32639;SDS011;19049;52.524;11.468;2023-09-19T00:30:48;0.50;;;0.40;;
32639;SDS011;19049;52.524;11.468;2023-09-19T00:33:20;3.77;;;0.60;;
32639;SDS011;19049;52.524;11.468;2023-09-19T00:35:49;0.40;;;0.40;;
32639;SDS011;19049;52.524;11.468;2023-09-19T00:38:15;0.47;;;0.43;;
32639;SDS011;19049;52.524;11.468;2023-09-19T00:40:44;2.20;;;0.57;;
32639;SDS011;19049;52.524;11.468;2023-09-19T00:43:10;0.50;;;0.50;;
32639;SDS011;19049;52.524;11.468;2023-09-19T00:45:36;0.80;;;0.50;;
32639;SDS011;19049;52.524;11.468;2023-09-19T00:48:03;0.80;;;0.40;;
32639;SDS011;19049;52.524;11.468;2023-09-19T00:50:32;0.47;;;0.47;;
32639;SDS011;19049;52.524;11.468;2023-09-19T00:52:58;0.40;;;0.40;;
32639;SDS011;19049;52.524;11.468;2023-09-19T00:55:24;0.30;;;0.30;;
32639;SDS011;19049;52.524;11.468;2023-09-19T00:57:50;1.03;;;0.33;;
32639;SDS011;19049;52.524;11.468;2023-09-19T01:00:17;0.73;;;0.50;;
32639;SDS011;19049;52.524;11.468;2023-09-19T01:02:45;0.70;;;0.50;;
32639;SDS011;19049;52.524;11.468;2023-09-19T01:05:12;0.73;;;0.50;;
32639;SDS011;19049;52.524;11.468;2023-09-19T01:07:38;0.40;;;0.40;;
32639;SDS011;19049;52.524;11.468;2023-09-19T01:10:08;0.40;;;0.40;;
32639;SDS011;19049;52.524;11.468;2023-09-19T01:12:54;1.43;;;0.30;;
32639;SDS011;19049;52.524;11.468;2023-09-19T01:18:43;0.50;;;0.30;;
32639;SDS011;19049;52.524;11.468;2023-09-19T01:21:40;0.50;;;0.50;;
32639;SDS011;19049;52.524;11.468;2023-09-19T01:30:24;0.50;;;0.50;;
32639;SDS011;19049;52.524;11.468;2023-09-19T01:32:54;0.47;;;0.43;;
32639;SDS011;19049;52.524;11.468;2023-09-19T01:35:20;0.60;;;0.50;;
32639;SDS011;19049;52.524;11.468;2023-09-19T01:37:45;0.60;;;0.50;;
32639;SDS011;19049;52.524;11.468;2023-09-19T01:40:18;1.10;;;0.70;;
32639;SDS011;19049;52.524;11.468;2023-09-19T01:47:48;0.70;;;0.70;;
32639;SDS011;19049;52.524;11.468;2023-09-19T01:50:32;1.13;;;0.77;;
32639;SDS011;19049;52.524;11.468;2023-09-19T01:53:07;1.03;;;0.60;;
32639;SDS011;19049;52.524;11.468;2023-09-19T01:55:46;1.00;;;0.70;;
32639;SDS011;19049;52.524;11.468;2023-09-19T02:00:49;0.70;;;0.70;;
32639;SDS011;19049;52.524;11.468;2023-09-19T02:03:19;2.37;;;1.07;;
32639;SDS011;19049;52.524;11.468;2023-09-19T02:05:50;0.90;;;0.70;;
32639;SDS011;19049;52.524;11.468;2023-09-19T02:08:19;1.63;;;0.80;;
32639;SDS011;19049;52.524;11.468;2023-09-19T02:10:47;1.17;;;0.90;;
32639;SDS011;19049;52.524;11.468;2023-09-19T02:13:17;2.43;;;0.90;;
32639;SDS011;19049;52.524;11.468;2023-09-19T02:15:46;1.03;;;0.80;;
32639;SDS011;19049;52.524;11.468;2023-09-19T02:18:13;1.90;;;0.90;;
32639;SDS011;19049;52.524;11.468;2023-09-19T02:20:42;1.30;;;0.90;;
32639;SDS011;19049;52.524;11.468;2023-09-19T02:23:08;1.50;;;0.80;;
32639;SDS011;19049;52.524;11.468;2023-09-19T02:25:34;1.50;;;0.90;;
32639;SDS011;19049;52.524;11.468;2023-09-19T02:28:01;1.80;;;1.10;;
32639;SDS011;19049;52.524;11.468;2023-09-19T02:30:28;1.80;;;0.93;;
32639;SDS011;19049;52.524;11.468;2023-09-19T02:32:54;3.60;;;1.07;;
32639;SDS011;19049;52.524;11.468;2023-09-19T02:35:20;2.80;;;1.10;;
32639;SDS011;19049;52.524;11.468;2023-09-19T02:37:46;3.20;;;1.50;;
32639;SDS011;19049;52.524;11.468;2023-09-19T02:40:13;1.93;;;1.20;;
32639;SDS011;19049;52.524;11.468;2023-09-19T02:42:52;1.30;;;1.10;;
32639;SDS011;19049;52.524;11.468;2023-09-19T02:45:19;1.47;;;1.20;;
32639;SDS011;19049;52.524;11.468;2023-09-19T02:47:46;2.93;;;1.50;;
32639;SDS011;19049;52.524;11.468;2023-09-19T02:50:12;2.40;;;1.30;;
32639;SDS011;19049;52.524;11.468;2023-09-19T02:52:41;1.27;;;1.10;;
32639;SDS011;19049;52.524;11.468;2023-09-19T02:55:08;2.00;;;1.37;;
32639;SDS011;19049;52.524;11.468;2023-09-19T02:57:37;1.43;;;1.10;;
32639;SDS011;19049;52.524;11.468;2023-09-19T03:00:06;1.90;;;1.37;;
32639;SDS011;19049;52.524;11.468;2023-09-19T03:02:34;1.57;;;1.13;;
32639;SDS011;19049;52.524;11.468;2023-09-19T03:05:00;2.27;;;1.30;;
32639;SDS011;19049;52.524;11.468;2023-09-19T03:07:28;1.23;;;1.10;;
32639;SDS011;19049;52.524;11.468;2023-09-19T03:09:53;1.93;;;1.40;;
32639;SDS011;19049;52.524;11.468;2023-09-19T03:12:20;3.20;;;1.20;;
32639;SDS011;19049;52.524;11.468;2023-09-19T03:14:46;2.13;;;1.30;;
32639;SDS011;19049;52.524;11.468;2023-09-19T03:17:11;2.97;;;1.20;;
32639;SDS011;19049;52.524;11.468;2023-09-19T03:19:39;1.50;;;1.20;;
32639;SDS011;19049;52.524;11.468;2023-09-19T03:22:05;2.03;;;1.10;;
32639;SDS011;19049;52.524;11.468;2023-09-19T03:24:31;1.70;;;1.40;;
32639;SDS011;19049;52.524;11.468;2023-09-19T03:27:00;1.93;;;1.03;;
32639;SDS011;19049;52.524;11.468;2023-09-19T03:29:26;2.00;;;1.47;;
32639;SDS011;19049;52.524;11.468;2023-09-19T03:31:52;1.10;;;1.00;;
32639;SDS011;19049;52.524;11.468;2023-09-19T03:34:19;1.83;;;1.10;;
32639;SDS011;19049;52.524;11.468;2023-09-19T03:36:45;1.60;;;1.17;;
32639;SDS011;19049;52.524;11.468;2023-09-19T03:39:11;1.37;;;1.07;;
32639;SDS011;19049;52.524;11.468;2023-09-19T03:41:37;3.30;;;1.47;;
32639;SDS011;19049;52.524;11.468;2023-09-19T03:44:03;3.50;;;1.60;;
32639;SDS011;19049;52.524;11.468;2023-09-19T03:46:30;2.47;;;1.53;;
32639;SDS011;19049;52.524;11.468;2023-09-19T03:48:57;2.13;;;1.60;;
32639;SDS011;19049;52.524;11.468;2023-09-19T03:51:23;2.80;;;1.60;;
32639;SDS011;19049;52.524;11.468;2023-09-19T03:53:49;1.87;;;1.40;;
32639;SDS011;19049;52.524;11.468;2023-09-19T03:56:15;3.63;;;1.73;;
32639;SDS011;19049;52.524;11.468;2023-09-19T03:58:40;2.90;;;1.37;;
32639;SDS011;19049;52.524;11.468;2023-09-19T04:01:06;1.87;;;1.30;;
32639;SDS011;19049;52.524;11.468;2023-09-19T04:03:33;2.57;;;1.40;;
32639;SDS011;19049;52.524;11.468;2023-09-19T04:06:12;1.80;;;1.20;;
32639;SDS011;19049;52.524;11.468;2023-09-19T04:08:41;3.27;;;1.17;;
32639;SDS011;19049;52.524;11.468;2023-09-19T04:11:08;2.00;;;1.30;;
32639;SDS011;19049;52.524;11.468;2023-09-19T04:13:34;2.83;;;1.23;;
32639;SDS011;19049;52.524;11.468;2023-09-19T04:16:00;2.60;;;1.37;;
32639;SDS011;19049;52.524;11.468;2023-09-19T04:18:25;1.63;;;1.20;;
32639;SDS011;19049;52.524;11.468;2023-09-19T04:20:51;3.00;;;1.37;;
32639;SDS011;19049;52.524;11.468;2023-09-19T04:23:18;2.13;;;1.10;;
32639;SDS011;19049;52.524;11.468;2023-09-19T04:25:45;1.90;;;1.37;;
32639;SDS011;19049;52.524;11.468;2023-09-19T04:28:11;1.47;;;1.17;;
32639;SDS011;19049;52.524;11.468;2023-09-19T04:30:38;1.57;;;1.00;;
32639;SDS011;19049;52.524;11.468;2023-09-19T04:33:06;5.23;;;1.77;;
32639;SDS011;19049;52.524;11.468;2023-09-19T04:35:32;1.83;;;1.50;;
32639;SDS011;19049;52.524;11.468;2023-09-19T04:37:59;2.73;;;1.60;;
32639;SDS011;19049;52.524;11.468;2023-09-19T04:40:25;2.60;;;1.50;;
32639;SDS011;19049;52.524;11.468;2023-09-19T04:42:55;2.27;;;1.43;;
32639;SDS011;19049;52.524;11.468;2023-09-19T04:45:24;2.90;;;1.47;;
32639;SDS011;19049;52.524;11.468;2023-09-19T04:47:50;5.33;;;1.60;;
32639;SDS011;19049;52.524;11.468;2023-09-19T04:50:15;2.63;;;1.43;;
32639;SDS011;19049;52.524;11.468;2023-09-19T04:52:42;2.73;;;1.80;;
32639;SDS011;19049;52.524;11.468;2023-09-19T04:55:10;2.37;;;1.90;;
32639;SDS011;19049;52.524;11.468;2023-09-19T04:57:45;7.17;;;2.20;;
32639;SDS011;19049;52.524;11.468;2023-09-19T05:00:15;3.67;;;2.30;;
32639;SDS011;19049;52.524;11.468;2023-09-19T05:02:42;3.50;;;2.17;;
32639;SDS011;19049;52.524;11.468;2023-09-19T05:05:09;5.63;;;2.20;;
32639;SDS011;19049;52.524;11.468;2023-09-19T05:07:42;3.43;;;2.40;;
32639;SDS011;19049;52.524;11.468;2023-09-19T05:10:09;2.57;;;2.03;;
32639;SDS011;19049;52.524;11.468;2023-09-19T05:12:38;6.00;;;2.30;;
32639;SDS011;19049;52.524;11.468;2023-09-19T05:15:05;6.57;;;3.03;;
32639;SDS011;19049;52.524;11.468;2023-09-19T05:17:32;4.47;;;2.60;;
32639;SDS011;19049;52.524;11.468;2023-09-19T05:20:00;5.90;;;2.97;;
32639;SDS011;19049;52.524;11.468;2023-09-19T05:22:39;5.80;;;2.30;;
32639;SDS011;19049;52.524;11.468;2023-09-19T05:25:06;4.23;;;2.20;;
32639;SDS011;19049;52.524;11.468;2023-09-19T05:27:32;4.93;;;2.80;;
32639;SDS011;19049;52.524;11.468;2023-09-19T05:29:58;3.27;;;2.07;;
32639;SDS011;19049;52.524;11.468;2023-09-19T05:32:24;4.33;;;1.90;;
32639;SDS011;19049;52.524;11.468;2023-09-19T05:34:50;3.60;;;1.97;;
32639;SDS011;19049;52.524;11.468;2023-09-19T05:37:18;3.47;;;2.50;;
32639;SDS011;19049;52.524;11.468;2023-09-19T05:39:44;5.30;;;2.07;;
32639;SDS011;19049;52.524;11.468;2023-09-19T05:42:10;5.03;;;2.07;;
32639;SDS011;19049;52.524;11.468;2023-09-19T05:44:36;2.17;;;1.60;;
32639;SDS011;19049;52.524;11.468;2023-09-19T05:47:02;3.63;;;1.97;;
32639;SDS011;19049;52.524;11.468;2023-09-19T05:49:28;5.20;;;2.53;;
32639;SDS011;19049;52.524;11.468;2023-09-19T05:51:54;3.00;;;2.10;;
32639;SDS011;19049;52.524;11.468;2023-09-19T05:54:22;6.67;;;2.40;;
32639;SDS011;19049;52.524;11.468;2023-09-19T05:56:48;4.13;;;2.43;;
32639;SDS011;19049;52.524;11.468;2023-09-19T05:59:17;3.83;;;2.27;;
32639;SDS011;19049;52.524;11.468;2023-09-19T06:01:43;4.47;;;2.30;;
32639;SDS011;19049;52.524;11.468;2023-09-19T06:04:09;3.30;;;2.00;;
32639;SDS011;19049;52.524;11.468;2023-09-19T06:06:35;4.30;;;2.50;;
32639;SDS011;19049;52.524;11.468;2023-09-19T06:09:04;3.00;;;2.20;;
32639;SDS011;19049;52.524;11.468;2023-09-19T06:11:36;5.00;;;2.73;;
32639;SDS011;19049;52.524;11.468;2023-09-19T06:14:02;6.90;;;3.03;;
32639;SDS011;19049;52.524;11.468;2023-09-19T06:16:31;6.07;;;3.00;;
32639;SDS011;19049;52.524;11.468;2023-09-19T06:18:57;3.70;;;2.90;;
32639;SDS011;19049;52.524;11.468;2023-09-19T06:21:26;3.67;;;2.77;;
32639;SDS011;19049;52.524;11.468;2023-09-19T06:23:53;7.40;;;3.87;;
32639;SDS011;19049;52.524;11.468;2023-09-19T06:26:18;4.63;;;2.73;;
32639;SDS011;19049;52.524;11.468;2023-09-19T06:28:44;2.90;;;2.60;;
32639;SDS011;19049;52.524;11.468;2023-09-19T06:31:10;6.13;;;3.00;;
32639;SDS011;19049;52.524;11.468;2023-09-19T06:33:36;4.70;;;2.87;;
32639;SDS011;19049;52.524;11.468;2023-09-19T06:36:05;5.00;;;3.10;;
32639;SDS011;19049;52.524;11.468;2023-09-19T06:38:31;3.73;;;2.40;;
32639;SDS011;19049;52.524;11.468;2023-09-19T06:40:59;4.80;;;2.70;;
32639;SDS011;19049;52.524;11.468;2023-09-19T06:43:26;3.60;;;2.63;;
32639;SDS011;19049;52.524;11.468;2023-09-19T06:45:53;4.73;;;2.80;;
32639;SDS011;19049;52.524;11.468;2023-09-19T06:48:19;3.27;;;2.30;;
32639;SDS011;19049;52.524;11.468;2023-09-19T06:50:46;4.67;;;2.50;;
32639;SDS011;19049;52.524;11.468;2023-09-19T06:53:13;5.50;;;2.77;;
32639;SDS011;19049;52.524;11.468;2023-09-19T06:55:39;4.80;;;2.47;;
32639;SDS011;19049;52.524;11.468;2023-09-19T06:58:05;4.50;;;2.63;;
32639;SDS011;19049;52.524;11.468;2023-09-19T07:00:31;6.87;;;2.97;;
32639;SDS011;19049;52.524;11.468;2023-09-19T07:05:29;3.63;;;2.90;;
32639;SDS011;19049;52.524;11.468;2023-09-19T07:07:56;3.27;;;2.57;;
32639;SDS011;19049;52.524;11.468;2023-09-19T07:10:28;6.97;;;3.70;;
32639;SDS011;19049;52.524;11.468;2023-09-19T07:12:58;4.83;;;2.60;;
32639;SDS011;19049;52.524;11.468;2023-09-19T07:15:29;4.07;;;2.70;;
32639;SDS011;19049;52.524;11.468;2023-09-19T07:17:58;5.07;;;3.07;;
32639;SDS011;19049;52.524;11.468;2023-09-19T07:20:26;3.97;;;2.60;;
32639;SDS011;19049;52.524;11.468;2023-09-19T07:22:52;5.70;;;3.30;;
32639;SDS011;19049;52.524;11.468;2023-09-19T07:25:20;5.20;;;2.93;;
32639;SDS011;19049;52.524;11.468;2023-09-19T07:27:46;5.53;;;3.13;;
32639;SDS011;19049;52.524;11.468;2023-09-19T07:30:12;4.17;;;2.63;;
32639;SDS011;19049;52.524;11.468;2023-09-19T07:32:40;6.13;;;2.97;;
32639;SDS011;19049;52.524;11.468;2023-09-19T07:35:05;8.00;;;3.23;;
32639;SDS011;19049;52.524;11.468;2023-09-19T07:37:31;6.90;;;3.43;;
32639;SDS011;19049;52.524;11.468;2023-09-19T07:40:01;5.10;;;2.93;;
32639;SDS011;19049;52.524;11.468;2023-09-19T07:42:37;4.33;;;2.60;;
32639;SDS011;19049;52.524;11.468;2023-09-19T07:45:06;5.97;;;3.03;;
32639;SDS011;19049;52.524;11.468;2023-09-19T07:47:39;7.50;;;3.17;;
32639;SDS011;19049;52.524;11.468;2023-09-19T07:50:09;4.90;;;2.87;;
32639;SDS011;19049;52.524;11.468;2023-09-19T07:52:34;5.57;;;3.20;;
32639;SDS011;19049;52.524;11.468;2023-09-19T07:55:00;6.07;;;2.80;;
32639;SDS011;19049;52.524;11.468;2023-09-19T07:57:31;3.80;;;2.53;;
32639;SDS011;19049;52.524;11.468;2023-09-19T07:59:59;7.33;;;2.77;;
32639;SDS011;19049;52.524;11.468;2023-09-19T08:02:25;6.57;;;3.03;;
32639;SDS011;19049;52.524;11.468;2023-09-19T08:04:53;5.67;;;2.90;;
32639;SDS011;19049;52.524;11.468;2023-09-19T08:07:20;5.40;;;2.40;;
32639;SDS011;19049;52.524;11.468;2023-09-19T08:09:47;7.00;;;2.63;;
32639;SDS011;19049;52.524;11.468;2023-09-19T08:12:13;10.43;;;3.00;;
32639;SDS011;19049;52.524;11.468;2023-09-19T08:14:40;6.27;;;2.60;;
32639;SDS011;19049;52.524;11.468;2023-09-19T08:17:08;6.23;;;2.67;;
32639;SDS011;19049;52.524;11.468;2023-09-19T08:19:34;6.83;;;3.10;;
32639;SDS011;19049;52.524;11.468;2023-09-19T08:22:05;3.53;;;2.27;;
32639;SDS011;19049;52.524;11.468;2023-09-19T08:24:32;4.43;;;2.40;;
32639;SDS011;19049;52.524;11.468;2023-09-19T08:26:58;4.63;;;2.40;;
32639;SDS011;19049;52.524;11.468;2023-09-19T08:29:24;6.33;;;2.30;;
32639;SDS011;19049;52.524;11.468;2023-09-19T08:31:54;4.83;;;2.30;;
32639;SDS011;19049;52.524;11.468;2023-09-19T08:34:21;5.23;;;2.17;;
32639;SDS011;19049;52.524;11.468;2023-09-19T08:36:51;4.60;;;2.40;;
32639;SDS011;19049;52.524;11.468;2023-09-19T08:39:23;3.20;;;2.10;;
32639;SDS011;19049;52.524;11.468;2023-09-19T08:41:49;4.00;;;2.17;;
32639;SDS011;19049;52.524;11.468;2023-09-19T08:44:21;4.53;;;2.57;;
32639;SDS011;19049;52.524;11.468;2023-09-19T08:46:47;5.40;;;2.33;;
32639;SDS011;19049;52.524;11.468;2023-09-19T08:49:27;4.50;;;2.43;;
32639;SDS011;19049;52.524;11.468;2023-09-19T08:52:01;6.03;;;2.33;;
32639;SDS011;19049;52.524;11.468;2023-09-19T08:54:37;5.53;;;1.93;;
32639;SDS011;19049;52.524;11.468;2023-09-19T08:57:05;4.87;;;2.37;;
32639;SDS011;19049;52.524;11.468;2023-09-19T08:59:36;6.40;;;2.47;;
32639;SDS011;19049;52.524;11.468;2023-09-19T09:02:08;7.97;;;2.40;;
32639;SDS011;19049;52.524;11.468;2023-09-19T09:04:38;5.97;;;2.23;;
32639;SDS011;19049;52.524;11.468;2023-09-19T09:07:11;4.83;;;2.13;;
32639;SDS011;19049;52.524;11.468;2023-09-19T09:09:41;3.77;;;1.70;;
32639;SDS011;19049;52.524;11.468;2023-09-19T09:12:12;6.73;;;2.73;;
32639;SDS011;19049;52.524;11.468;2023-09-19T09:14:39;5.83;;;2.27;;
32639;SDS011;19049;52.524;11.468;2023-09-19T09:17:06;6.27;;;1.93;;
32639;SDS011;19049;52.524;11.468;2023-09-19T09:19:32;5.10;;;1.60;;
32639;SDS011;19049;52.524;11.468;2023-09-19T09:22:08;6.90;;;1.67;;
32639;SDS011;19049;52.524;11.468;2023-09-19T09:24:35;5.70;;;2.20;;
32639;SDS011;19049;52.524;11.468;2023-09-19T09:27:04;5.23;;;1.70;;
32639;SDS011;19049;52.524;11.468;2023-09-19T09:29:46;4.23;;;1.93;;
32639;SDS011;19049;52.524;11.468;2023-09-19T09:32:25;3.30;;;1.63;;
32639;SDS011;19049;52.524;11.468;2023-09-19T09:34:58;4.07;;;1.70;;
32639;SDS011;19049;52.524;11.468;2023-09-19T09:37:25;6.37;;;1.90;;
32639;SDS011;19049;52.524;11.468;2023-09-19T09:39:55;5.20;;;1.70;;
32639;SDS011;19049;52.524;11.468;2023-09-19T09:42:36;3.97;;;1.53;;
32639;SDS011;19049;52.524;11.468;2023-09-19T09:45:13;6.07;;;2.03;;
32639;SDS011;19049;52.524;11.468;2023-09-19T09:47:42;4.93;;;1.60;;
32639;SDS011;19049;52.524;11.468;2023-09-19T09:50:16;4.27;;;1.70;;
32639;SDS011;19049;52.524;11.468;2023-09-19T09:52:54;6.63;;;1.87;;
32639;SDS011;19049;52.524;11.468;2023-09-19T09:55:26;7.63;;;1.83;;
32639;SDS011;19049;52.524;11.468;2023-09-19T09:58:03;4.37;;;1.07;;
32639;SDS011;19049;52.524;11.468;2023-09-19T10:00:53;5.17;;;1.37;;
32639;SDS011;19049;52.524;11.468;2023-09-19T10:03:37;4.00;;;1.53;;
32639;SDS011;19049;52.524;11.468;2023-09-19T10:06:13;4.87;;;1.50;;
32639;SDS011;19049;52.524;11.468;2023-09-19T10:09:08;5.30;;;1.60;;
32639;SDS011;19049;52.524;11.468;2023-09-19T10:11:43;8.53;;;1.97;;
32639;SDS011;19049;52.524;11.468;2023-09-19T10:14:10;4.20;;;2.03;;
32639;SDS011;19049;52.524;11.468;2023-09-19T10:16:45;4.97;;;1.83;;
32639;SDS011;19049;52.524;11.468;2023-09-19T10:19:15;3.87;;;1.50;;
32639;SDS011;19049;52.524;11.468;2023-09-19T10:21:48;5.07;;;1.63;;
32639;SDS011;19049;52.524;11.468;2023-09-19T10:24:15;4.80;;;1.53;;
32639;SDS011;19049;52.524;11.468;2023-09-19T10:26:42;4.27;;;1.57;;
32639;SDS011;19049;52.524;11.468;2023-09-19T10:29:10;6.27;;;1.60;;
32639;SDS011;19049;52.524;11.468;2023-09-19T10:31:42;3.27;;;1.40;;
32639;SDS011;19049;52.524;11.468;2023-09-19T10:34:12;3.90;;;1.77;;
32639;SDS011;19049;52.524;11.468;2023-09-19T10:36:40;5.27;;;1.33;;
32639;SDS011;19049;52.524;11.468;2023-09-19T10:39:11;4.87;;;1.63;;
32639;SDS011;19049;52.524;11.468;2023-09-19T10:41:47;2.20;;;1.10;;
32639;SDS011;19049;52.524;11.468;2023-09-19T10:44:25;3.13;;;1.20;;
32639;SDS011;19049;52.524;11.468;2023-09-19T10:46:54;4.93;;;1.53;;
32639;SDS011;19049;52.524;11.468;2023-09-19T10:49:20;5.40;;;1.83;;
32639;SDS011;19049;52.524;11.468;2023-09-19T10:51:47;5.07;;;1.83;;
32639;SDS011;19049;52.524;11.468;2023-09-19T10:54:20;3.17;;;1.40;;
32639;SDS011;19049;52.524;11.468;2023-09-19T10:56:51;3.03;;;1.20;;
32639;SDS011;19049;52.524;11.468;2023-09-19T10:59:20;4.73;;;1.80;;
32639;SDS011;19049;52.524;11.468;2023-09-19T11:01:47;4.17;;;1.40;;
32639;SDS011;19049;52.524;11.468;2023-09-19T11:04:35;3.27;;;1.30;;
32639;SDS011;19049;52.524;11.468;2023-09-19T11:07:07;3.23;;;1.53;;
32639;SDS011;19049;52.524;11.468;2023-09-19T11:12:12;4.47;;;1.70;;
32639;SDS011;19049;52.524;11.468;2023-09-19T11:15:06;12.87;;;1.87;;
32639;SDS011;19049;52.524;11.468;2023-09-19T11:17:43;5.87;;;1.50;;
32639;SDS011;19049;52.524;11.468;2023-09-19T11:30:32;4.70;;;1.50;;
32639;SDS011;19049;52.524;11.468;2023-09-19T11:36:04;3.03;;;1.50;;
32639;SDS011;19049;52.524;11.468;2023-09-19T11:43:51;3.80;;;1.30;;
32639;SDS011;19049;52.524;11.468;2023-09-19T11:46:33;6.10;;;1.77;;
32639;SDS011;19049;52.524;11.468;2023-09-19T11:49:08;3.70;;;1.40;;
32639;SDS011;19049;52.524;11.468;2023-09-19T11:51:54;2.97;;;1.13;;
32639;SDS011;19049;52.524;11.468;2023-09-19T11:54:21;3.10;;;1.20;;
32639;SDS011;19049;52.524;11.468;2023-09-19T11:56:53;3.07;;;1.10;;
32639;SDS011;19049;52.524;11.468;2023-09-19T11:59:23;2.87;;;1.30;;
32639;SDS011;19049;52.524;11.468;2023-09-19T12:01:55;2.53;;;1.13;;
32639;SDS011;19049;52.524;11.468;2023-09-19T12:04:33;4.40;;;1.40;;
32639;SDS011;19049;52.524;11.468;2023-09-19T12:07:15;4.83;;;1.47;;
32639;SDS011;19049;52.524;11.468;2023-09-19T12:09:45;3.13;;;1.33;;
32639;SDS011;19049;52.524;11.468;2023-09-19T12:12:22;5.07;;;1.73;;
32639;SDS011;19049;52.524;11.468;2023-09-19T12:14:53;4.57;;;1.60;;
32639;SDS011;19049;52.524;11.468;2023-09-19T12:17:22;2.87;;;1.43;;
32639;SDS011;19049;52.524;11.468;2023-09-19T12:19:55;4.70;;;1.80;;
32639;SDS011;19049;52.524;11.468;2023-09-19T12:22:22;5.30;;;2.07;;
32639;SDS011;19049;52.524;11.468;2023-09-19T12:24:48;2.57;;;1.50;;
32639;SDS011;19049;52.524;11.468;2023-09-19T12:27:15;4.80;;;1.70;;
32639;SDS011;19049;52.524;11.468;2023-09-19T12:29:45;2.80;;;1.20;;
32639;SDS011;19049;52.524;11.468;2023-09-19T12:32:16;4.27;;;1.70;;
32639;SDS011;19049;52.524;11.468;2023-09-19T12:34:50;3.23;;;1.47;;
32639;SDS011;19049;52.524;11.468;2023-09-19T12:37:17;5.17;;;1.70;;
32639;SDS011;19049;52.524;11.468;2023-09-19T12:40:08;6.13;;;2.40;;
32639;SDS011;19049;52.524;11.468;2023-09-19T12:42:47;4.77;;;2.00;;
32639;SDS011;19049;52.524;11.468;2023-09-19T12:45:14;4.20;;;1.70;;
32639;SDS011;19049;52.524;11.468;2023-09-19T12:50:59;6.00;;;1.77;;
32639;SDS011;19049;52.524;11.468;2023-09-19T12:53:25;5.70;;;1.90;;
32639;SDS011;19049;52.524;11.468;2023-09-19T12:56:00;3.17;;;1.80;;
32639;SDS011;19049;52.524;11.468;2023-09-19T12:58:26;4.33;;;1.70;;
32639;SDS011;19049;52.524;11.468;2023-09-19T13:00:55;4.17;;;1.60;;
32639;SDS011;19049;52.524;11.468;2023-09-19T13:05:56;10.93;;;3.17;;
32639;SDS011;19049;52.524;11.468;2023-09-19T13:16:06;6.53;;;2.07;;
32639;SDS011;19049;52.524;11.468;2023-09-19T13:18:43;4.43;;;1.60;;
32639;SDS011;19049;52.524;11.468;2023-09-19T13:21:10;4.73;;;2.10;;
32639;SDS011;19049;52.524;11.468;2023-09-19T13:23:42;3.93;;;1.63;;
32639;SDS011;19049;52.524;11.468;2023-09-19T13:26:09;3.00;;;1.57;;
32639;SDS011;19049;52.524;11.468;2023-09-19T13:28:35;4.40;;;1.77;;
32639;SDS011;19049;52.524;11.468;2023-09-19T13:31:01;3.17;;;1.30;;
32639;SDS011;19049;52.524;11.468;2023-09-19T13:33:27;4.10;;;1.30;;
32639;SDS011;19049;52.524;11.468;2023-09-19T13:35:53;5.70;;;1.90;;
32639;SDS011;19049;52.524;11.468;2023-09-19T13:38:22;2.10;;;1.50;;
32639;SDS011;19049;52.524;11.468;2023-09-19T13:40:48;4.33;;;1.73;;
32639;SDS011;19049;52.524;11.468;2023-09-19T13:43:17;6.27;;;2.03;;
32639;SDS011;19049;52.524;11.468;2023-09-19T13:45:43;4.07;;;1.70;;
32639;SDS011;19049;52.524;11.468;2023-09-19T13:48:09;3.97;;;1.53;;
32639;SDS011;19049;52.524;11.468;2023-09-19T13:50:38;2.97;;;1.80;;
32639;SDS011;19049;52.524;11.468;2023-09-19T13:53:07;2.83;;;1.60;;
32639;SDS011;19049;52.524;11.468;2023-09-19T13:55:33;4.10;;;1.90;;
32639;SDS011;19049;52.524;11.468;2023-09-19T13:57:59;4.87;;;2.13;;
32639;SDS011;19049;52.524;11.468;2023-09-19T14:00:25;5.00;;;1.80;;
32639;SDS011;19049;52.524;11.468;2023-09-19T14:02:52;6.27;;;1.80;;
32639;SDS011;19049;52.524;11.468;2023-09-19T14:05:18;4.97;;;1.93;;
32639;SDS011;19049;52.524;11.468;2023-09-19T14:07:45;4.07;;;1.63;;
32639;SDS011;19049;52.524;11.468;2023-09-19T14:10:11;4.23;;;1.50;;
32639;SDS011;19049;52.524;11.468;2023-09-19T14:12:38;4.07;;;1.60;;
32639;SDS011;19049;52.524;11.468;2023-09-19T14:15:07;3.37;;;1.30;;
32639;SDS011;19049;52.524;11.468;2023-09-19T14:17:33;3.30;;;1.60;;
32639;SDS011;19049;52.524;11.468;2023-09-19T14:20:00;5.00;;;1.60;;
32639;SDS011;19049;52.524;11.468;2023-09-19T14:22:26;5.07;;;1.60;;
32639;SDS011;19049;52.524;11.468;2023-09-19T14:24:52;3.13;;;1.40;;
32639;SDS011;19049;52.524;11.468;2023-09-19T14:27:18;5.10;;;1.97;;
32639;SDS011;19049;52.524;11.468;2023-09-19T14:29:44;3.47;;;1.70;;
32639;SDS011;19049;52.524;11.468;2023-09-19T14:32:10;4.33;;;2.17;;
32639;SDS011;19049;52.524;11.468;2023-09-19T14:34:36;4.10;;;1.80;;
32639;SDS011;19049;52.524;11.468;2023-09-19T14:37:06;3.50;;;1.47;;
32639;SDS011;19049;52.524;11.468;2023-09-19T14:39:33;4.67;;;2.07;;
32639;SDS011;19049;52.524;11.468;2023-09-19T14:41:59;7.23;;;1.80;;
32639;SDS011;19049;52.524;11.468;2023-09-19T14:44:25;4.73;;;2.10;;
32639;SDS011;19049;52.524;11.468;2023-09-19T14:46:51;5.40;;;1.80;;
32639;SDS011;19049;52.524;11.468;2023-09-19T14:49:16;3.67;;;1.40;;
32639;SDS011;19049;52.524;11.468;2023-09-19T14:51:42;4.73;;;1.73;;
32639;SDS011;19049;52.524;11.468;2023-09-19T14:54:13;3.50;;;2.03;;
32639;SDS011;19049;52.524;11.468;2023-09-19T14:56:42;5.73;;;1.83;;
32639;SDS011;19049;52.524;11.468;2023-09-19T14:59:08;5.23;;;2.03;;
32639;SDS011;19049;52.524;11.468;2023-09-19T15:01:36;4.77;;;1.63;;
32639;SDS011;19049;52.524;11.468;2023-09-19T15:04:03;2.73;;;1.27;;
32639;SDS011;19049;52.524;11.468;2023-09-19T15:06:29;3.67;;;1.47;;
32639;SDS011;19049;52.524;11.468;2023-09-19T15:08:55;4.23;;;2.00;;
32639;SDS011;19049;52.524;11.468;2023-09-19T15:11:22;3.33;;;1.60;;
32639;SDS011;19049;52.524;11.468;2023-09-19T15:13:50;3.67;;;1.53;;
32639;SDS011;19049;52.524;11.468;2023-09-19T15:16:16;3.93;;;2.00;;
32639;SDS011;19049;52.524;11.468;2023-09-19T15:18:44;4.80;;;1.97;;
32639;SDS011;19049;52.524;11.468;2023-09-19T15:21:13;4.67;;;2.23;;
32639;SDS011;19049;52.524;11.468;2023-09-19T15:23:40;5.83;;;1.87;;
32639;SDS011;19049;52.524;11.468;2023-09-19T15:26:07;3.77;;;1.70;;
32639;SDS011;19049;52.524;11.468;2023-09-19T15:28:33;3.33;;;1.60;;
32639;SDS011;19049;52.524;11.468;2023-09-19T15:31:00;3.47;;;1.67;;
32639;SDS011;19049;52.524;11.468;2023-09-19T15:33:27;4.30;;;1.93;;
32639;SDS011;19049;52.524;11.468;2023-09-19T15:36:15;4.10;;;1.97;;
32639;SDS011;19049;52.524;11.468;2023-09-19T15:41:25;3.40;;;2.03;;